createdAt,value
2022-10-17T00:01:09.605Z,58.13
2022-10-17T00:03:39.146Z,61.75
2022-10-17T00:06:09.270Z,58.35
2022-10-17T00:08:38.357Z,61.47
2022-10-17T00:11:09.154Z,55.55
2022-10-17T00:13:37.536Z,59.70
2022-10-17T00:16:06.225Z,52.22
2022-10-17T00:18:36.309Z,58.10
2022-10-17T00:21:05.168Z,57.92
2022-10-17T00:23:34.993Z,52.58
2022-10-17T00:26:05.277Z,59.25
2022-10-17T00:28:34.325Z,60.08
2022-10-17T00:31:27.470Z,57.78
2022-10-17T00:33:57.020Z,60.97
2022-10-17T00:36:27.029Z,55.70
2022-10-17T00:38:57.323Z,63.85
2022-10-17T00:41:27.344Z,62.70
2022-10-17T00:43:59.367Z,66.45
2022-10-17T00:46:30.320Z,63.70
2022-10-17T00:49:03.964Z,63.13
2022-10-17T00:51:38.626Z,64.15
2022-10-17T00:54:08.029Z,59.13
2022-10-17T00:56:37.020Z,61.42
2022-10-17T01:01:40.064Z,60.72
2022-10-17T01:04:09.905Z,54.72
2022-10-17T01:06:40.946Z,54.33
2022-10-17T01:09:09.459Z,67.88
2022-10-17T01:11:47.538Z,55.67
2022-10-17T01:14:29.522Z,65.53
2022-10-17T01:17:08.448Z,62.92
2022-10-17T01:19:57.505Z,60.80
2022-10-17T01:22:29.432Z,59.53
2022-10-17T01:25:24.986Z,60.20
2022-10-17T01:28:20.006Z,62.80
2022-10-17T01:31:15.883Z,69.05
2022-10-17T01:33:54.533Z,66.65
2022-10-17T01:36:34.268Z,62.72
2022-10-17T01:39:11.856Z,67.03
2022-10-17T01:41:45.817Z,61.28
2022-10-17T01:44:19.095Z,53.72
2022-10-17T01:46:52.485Z,64.00
2022-10-17T01:49:25.793Z,61.25
2022-10-17T01:51:58.754Z,64.50
2022-10-17T01:54:31.845Z,70.43
2022-10-17T01:57:03.008Z,65.38
2022-10-17T01:59:39.382Z,75.32
2022-10-17T02:02:10.589Z,65.95
2022-10-17T02:04:38.764Z,75.80
2022-10-17T02:07:10.798Z,69.28
2022-10-17T02:09:39.618Z,74.05
2022-10-17T02:12:28.853Z,75.70
2022-10-17T02:15:11.529Z,66.78
2022-10-17T02:17:49.516Z,73.00
2022-10-17T02:20:24.844Z,68.03
2022-10-17T02:22:58.506Z,67.20
2022-10-17T02:25:36.617Z,66.28
2022-10-17T02:28:15.140Z,71.40
2022-10-17T02:31:11.497Z,73.03
2022-10-17T02:33:45.940Z,65.53
2022-10-17T02:36:20.276Z,66.20
2022-10-17T02:38:50.056Z,61.75
2022-10-17T02:41:20.497Z,65.78
2022-10-17T02:43:50.797Z,74.32
2022-10-17T02:46:23.018Z,76.70
2022-10-17T02:48:55.890Z,72.20
2022-10-17T02:51:31.196Z,72.85
2022-10-17T02:54:06.141Z,68.05
2022-10-17T02:56:42.389Z,65.38
2022-10-17T02:59:16.595Z,74.85
2022-10-17T03:01:45.276Z,71.47
2022-10-17T03:04:16.077Z,72.80
2022-10-17T03:06:44.438Z,72.32
2022-10-17T03:09:12.420Z,71.63
2022-10-17T03:11:42.133Z,73.60
2022-10-17T03:14:10.916Z,71.40
2022-10-17T03:16:38.946Z,74.65
2022-10-17T03:19:07.793Z,80.55
2022-10-17T03:21:38.167Z,72.22
2022-10-17T03:24:08.651Z,65.25
2022-10-17T03:26:37.159Z,73.40
2022-10-17T03:29:06.099Z,76.82
2022-10-17T03:31:35.605Z,70.95
2022-10-17T03:34:05.414Z,72.75
2022-10-17T03:36:33.673Z,65.80
2022-10-17T03:39:04.193Z,69.65
2022-10-17T03:41:32.691Z,67.30
2022-10-17T03:44:00.740Z,61.33
2022-10-17T03:46:29.250Z,66.90
2022-10-17T03:48:59.411Z,65.38
2022-10-17T03:51:27.770Z,79.72
2022-10-17T03:54:03.927Z,68.60
2022-10-17T03:56:31.967Z,74.28
2022-10-17T03:59:05.997Z,71.72
2022-10-17T04:01:36.733Z,71.22
2022-10-17T04:04:05.187Z,65.20
2022-10-17T04:06:36.909Z,69.57
2022-10-17T04:09:07.929Z,63.28
2022-10-17T04:11:43.227Z,69.55
2022-10-17T04:14:12.054Z,67.53
2022-10-17T04:16:40.947Z,69.00
2022-10-17T04:19:15.021Z,70.25
2022-10-17T04:21:47.129Z,67.78
2022-10-17T04:24:17.540Z,72.75
2022-10-17T04:27:04.938Z,77.10
2022-10-17T04:29:35.404Z,59.15
2022-10-17T04:32:25.943Z,69.20
2022-10-17T04:35:04.432Z,64.28
2022-10-17T04:37:32.704Z,79.20
2022-10-17T04:40:09.996Z,72.05
2022-10-17T04:42:39.185Z,71.35
2022-10-17T04:45:08.840Z,64.93
2022-10-17T04:47:37.831Z,69.00
2022-10-17T04:50:07.403Z,67.53
2022-10-17T04:52:38.195Z,67.63
2022-10-17T04:55:09.276Z,77.60
2022-10-17T04:57:37.481Z,65.65
2022-10-17T05:00:19.048Z,66.40
2022-10-17T05:02:49.576Z,63.67
2022-10-17T05:05:17.756Z,62.88
2022-10-17T05:07:48.025Z,69.10
2022-10-17T05:10:21.333Z,58.40
2022-10-17T05:12:52.114Z,75.50
2022-10-17T05:15:23.492Z,52.13
2022-10-17T05:17:56.332Z,56.33
2022-10-17T05:20:25.898Z,56.33
2022-10-17T05:22:54.729Z,56.88
2022-10-17T05:25:24.425Z,61.92
2022-10-17T05:27:52.792Z,65.53
2022-10-17T05:30:21.482Z,54.50
2022-10-17T05:32:55.651Z,50.22
2022-10-17T05:35:24.193Z,57.83
2022-10-17T05:37:53.621Z,59.90
2022-10-17T05:40:25.141Z,61.33
2022-10-17T05:42:55.229Z,57.90
2022-10-17T05:45:24.829Z,52.78
2022-10-17T05:47:53.197Z,63.50
2022-10-17T05:50:24.022Z,59.85
2022-10-17T05:53:15.461Z,59.85
2022-10-17T05:55:56.946Z,62.00
2022-10-17T05:58:45.593Z,63.30
2022-10-17T06:01:25.821Z,65.43
2022-10-17T06:03:54.583Z,55.42
2022-10-17T06:06:22.816Z,58.53
2022-10-17T06:08:52.210Z,55.28
2022-10-17T06:11:28.180Z,55.15
2022-10-17T06:13:56.303Z,50.75
2022-10-17T06:16:26.664Z,55.35
2022-10-17T06:18:54.683Z,53.78
2022-10-17T06:21:24.827Z,56.38
2022-10-17T06:23:55.587Z,51.60
2022-10-17T06:26:32.558Z,56.55
2022-10-17T06:29:00.631Z,54.30
2022-10-17T06:31:33.204Z,54.42
2022-10-17T06:34:02.281Z,47.83
2022-10-17T06:36:31.232Z,49.75
2022-10-17T06:38:59.318Z,54.67
2022-10-17T06:41:41.093Z,49.38
2022-10-17T06:44:11.309Z,52.95
2022-10-17T06:46:58.548Z,50.72
2022-10-17T06:49:27.999Z,47.13
2022-10-17T06:52:19.471Z,48.25
2022-10-17T06:55:00.838Z,46.10
2022-10-17T06:57:41.544Z,45.30
2022-10-17T07:00:42.097Z,44.10
2022-10-17T07:03:12.203Z,42.65
2022-10-17T07:05:40.302Z,42.75
2022-10-17T07:08:09.295Z,39.50
2022-10-17T07:10:40.003Z,36.15
2022-10-17T07:13:10.854Z,35.88
2022-10-17T07:15:39.673Z,35.38
2022-10-17T07:18:08.031Z,33.00
2022-10-17T07:20:36.596Z,32.83
2022-10-17T07:23:05.933Z,33.58
2022-10-17T07:25:36.507Z,29.60
2022-10-17T07:28:10.897Z,28.98
2022-10-17T07:30:40.183Z,30.73
2022-10-17T07:33:12.976Z,31.52
2022-10-17T07:35:41.954Z,32.42
2022-10-17T07:38:10.498Z,30.73
2022-10-17T07:40:38.852Z,33.10
2022-10-17T07:43:07.419Z,29.58
2022-10-17T07:45:37.318Z,28.48
2022-10-17T07:48:06.046Z,27.52
2022-10-17T07:50:35.217Z,30.52
2022-10-17T07:53:03.669Z,31.48
2022-10-17T07:55:31.909Z,32.05
2022-10-17T07:58:01.234Z,38.17
2022-10-17T08:00:29.474Z,33.17
2022-10-17T08:02:59.177Z,31.08
2022-10-17T08:05:27.441Z,30.48
2022-10-17T08:07:56.097Z,28.40
2022-10-17T08:10:27.735Z,32.85
2022-10-17T08:12:56.201Z,28.98
2022-10-17T08:15:27.934Z,31.35
2022-10-17T08:18:01.038Z,28.85
2022-10-17T08:20:29.145Z,30.42
2022-10-17T08:22:57.279Z,27.90
2022-10-17T08:25:25.548Z,31.58
2022-10-17T08:27:53.651Z,29.05
2022-10-17T08:30:22.158Z,26.52
2022-10-17T08:32:50.680Z,30.42
2022-10-17T08:35:21.925Z,28.10
2022-10-17T08:37:50.126Z,29.08
2022-10-17T08:40:22.196Z,32.85
2022-10-17T08:43:18.887Z,29.63
2022-10-17T08:45:52.251Z,31.60
2022-10-17T08:48:24.677Z,29.80
2022-10-17T08:50:57.767Z,28.80
2022-10-17T08:53:32.203Z,25.58
2022-10-17T08:56:11.867Z,24.77
2022-10-17T08:58:40.617Z,26.60
2022-10-17T09:01:15.642Z,26.80
2022-10-17T09:03:56.866Z,28.88
2022-10-17T09:06:30.199Z,30.23
2022-10-17T09:09:19.597Z,26.67
2022-10-17T09:12:02.942Z,27.60
2022-10-17T09:15:09.532Z,28.30
2022-10-17T09:17:49.899Z,38.88
2022-10-17T09:20:22.679Z,34.72
2022-10-17T09:22:58.498Z,27.67
2022-10-17T09:25:27.857Z,28.38
2022-10-17T09:28:00.618Z,25.73
2022-10-17T09:30:45.166Z,25.35
2022-10-17T09:33:28.275Z,23.52
2022-10-17T09:36:07.879Z,26.42
2022-10-17T09:38:43.100Z,25.88
2022-10-17T09:41:43.777Z,24.52
2022-10-17T09:44:30.746Z,25.40
2022-10-17T09:47:21.993Z,27.88
2022-10-17T09:49:50.754Z,23.15
2022-10-17T09:52:21.407Z,24.88
2022-10-17T09:54:54.363Z,25.42
2022-10-17T09:57:23.721Z,23.38
2022-10-17T10:00:00.518Z,24.88
2022-10-17T10:02:30.864Z,26.73
2022-10-17T10:05:04.291Z,22.77
2022-10-17T10:07:35.415Z,22.38
2022-10-17T10:10:07.652Z,21.10
2022-10-17T10:12:37.521Z,24.98
2022-10-17T10:15:34.156Z,21.05
2022-10-17T10:18:02.897Z,24.00
2022-10-17T10:20:35.220Z,23.08
2022-10-17T10:23:08.868Z,19.52
2022-10-17T10:25:38.670Z,23.92
2022-10-17T10:28:12.194Z,22.88
2022-10-17T10:30:40.382Z,24.92
2022-10-17T10:33:12.965Z,21.58
2022-10-17T10:35:41.248Z,20.98
2022-10-17T10:38:12.706Z,21.17
2022-10-17T10:40:49.090Z,21.45
2022-10-17T10:43:28.564Z,20.45
2022-10-17T10:45:57.203Z,21.83
2022-10-17T10:48:27.442Z,21.38
2022-10-17T10:51:00.158Z,23.40
2022-10-17T10:53:38.816Z,19.17
2022-10-17T10:56:14.579Z,19.55
2022-10-17T10:58:54.239Z,20.73
2022-10-17T11:01:30.455Z,21.83
2022-10-17T11:04:17.266Z,19.98
2022-10-17T11:06:47.252Z,21.73
2022-10-17T11:09:29.952Z,23.27
2022-10-17T11:12:08.308Z,23.67
2022-10-17T11:14:44.483Z,23.52
2022-10-17T11:17:21.644Z,17.85
2022-10-17T11:19:58.160Z,21.60
2022-10-17T11:22:31.144Z,20.40
2022-10-17T11:25:02.088Z,22.42
2022-10-17T11:27:32.984Z,20.88
2022-10-17T11:30:01.484Z,21.23
2022-10-17T11:32:36.213Z,22.95
2022-10-17T11:35:08.478Z,25.00
2022-10-17T11:37:45.984Z,22.80
2022-10-17T11:40:24.477Z,27.08
2022-10-17T11:42:59.865Z,22.10
2022-10-17T11:45:32.180Z,23.95
2022-10-17T11:48:05.815Z,21.80
2022-10-17T11:53:28.440Z,21.02
2022-10-17T11:56:01.270Z,22.45
2022-10-17T11:58:38.545Z,21.85
2022-10-17T12:01:17.570Z,28.38
2022-10-17T12:04:02.676Z,20.00
2022-10-17T12:06:44.585Z,24.85
2022-10-17T12:09:22.031Z,23.25
2022-10-17T12:11:54.870Z,19.50
2022-10-17T12:14:42.300Z,22.33
2022-10-17T12:17:33.088Z,19.42
2022-10-17T12:20:28.425Z,20.30
2022-10-17T12:22:58.420Z,20.02
2022-10-17T12:25:30.011Z,19.70
2022-10-17T12:28:14.527Z,20.67
2022-10-17T12:31:05.876Z,20.10
2022-10-17T12:33:38.643Z,24.05
2022-10-17T12:36:49.505Z,20.13
2022-10-17T12:39:51.854Z,23.45
2022-10-17T12:42:49.709Z,30.02
2022-10-17T12:45:49.338Z,24.55
2022-10-17T12:49:02.814Z,18.70
2022-10-17T12:52:09.798Z,21.10
2022-10-17T12:54:47.511Z,23.00
2022-10-17T12:57:26.256Z,21.83
2022-10-17T12:59:57.898Z,24.08
2022-10-17T13:02:30.827Z,20.92
2022-10-17T13:05:07.840Z,20.95
2022-10-17T13:07:38.557Z,21.65
2022-10-17T13:10:07.763Z,24.50
2022-10-17T13:12:41.130Z,24.83
2022-10-17T13:15:17.825Z,26.70
2022-10-17T13:17:46.419Z,22.70
2022-10-17T13:20:25.551Z,21.65
2022-10-17T13:22:59.524Z,21.00
2022-10-17T13:25:29.317Z,21.27
2022-10-17T13:28:13.719Z,23.35
2022-10-17T13:30:49.828Z,21.92
2022-10-17T13:33:33.402Z,22.65
2022-10-17T13:36:05.472Z,23.27
2022-10-17T13:38:40.289Z,22.35
2022-10-17T13:44:05.767Z,28.10
2022-10-17T13:46:38.399Z,22.88
2022-10-17T13:49:23.232Z,28.80
2022-10-17T13:51:55.616Z,25.40
2022-10-17T13:54:36.616Z,23.27
2022-10-17T13:57:06.714Z,25.17
2022-10-17T13:59:39.693Z,26.08
2022-10-17T14:02:14.901Z,22.35
2022-10-17T14:05:15.174Z,24.30
2022-10-17T14:08:05.487Z,26.33
2022-10-17T14:10:34.993Z,26.05
2022-10-17T14:13:04.964Z,25.13
2022-10-17T14:15:35.843Z,24.33
2022-10-17T14:18:08.255Z,22.00
2022-10-17T14:23:32.568Z,24.75
2022-10-17T14:26:23.537Z,20.92
2022-10-17T14:29:04.136Z,23.50
2022-10-17T14:31:34.189Z,20.60
2022-10-17T14:34:04.035Z,22.80
2022-10-17T14:36:39.155Z,24.73
2022-10-17T14:39:14.128Z,29.77
2022-10-17T14:41:45.692Z,24.55
2022-10-17T14:44:24.519Z,23.63
2022-10-17T14:46:56.693Z,25.52
2022-10-17T14:49:33.679Z,23.98
2022-10-17T14:52:26.723Z,25.77
2022-10-17T14:54:54.858Z,25.40
2022-10-17T14:57:29.663Z,26.08
2022-10-17T14:59:58.517Z,24.58
2022-10-17T15:02:28.671Z,36.63
2022-10-17T15:04:57.063Z,26.48
2022-10-17T15:07:25.335Z,28.48
2022-10-17T15:09:54.653Z,28.90
2022-10-17T15:12:25.968Z,29.55
2022-10-17T15:14:55.148Z,31.15
2022-10-17T15:17:26.138Z,28.85
2022-10-17T15:19:54.522Z,30.15
2022-10-17T15:22:22.856Z,30.15
2022-10-17T15:24:51.328Z,33.08
2022-10-17T15:27:22.224Z,29.20
2022-10-17T15:29:53.096Z,31.17
2022-10-17T15:32:21.728Z,28.08
2022-10-17T15:34:50.115Z,33.03
2022-10-17T15:37:22.281Z,28.63
2022-10-17T15:39:54.132Z,33.60
2022-10-17T15:42:23.712Z,28.60
2022-10-17T15:44:53.429Z,28.13
2022-10-17T15:47:26.537Z,30.23
2022-10-17T15:49:55.367Z,32.35
2022-10-17T15:52:24.577Z,33.22
2022-10-17T15:54:53.198Z,30.05
2022-10-17T15:57:25.467Z,32.80
2022-10-17T15:59:56.538Z,35.60
2022-10-17T16:02:25.434Z,34.95
2022-10-17T16:04:54.228Z,33.10
2022-10-17T16:07:22.786Z,31.90
2022-10-17T16:09:51.165Z,29.38
2022-10-17T16:12:31.187Z,34.17
2022-10-17T16:15:01.243Z,31.65
2022-10-17T16:17:29.949Z,30.88
2022-10-17T16:19:58.253Z,31.92
2022-10-17T16:22:32.552Z,30.90
2022-10-17T16:25:07.920Z,33.72
2022-10-17T16:27:36.483Z,30.85
2022-10-17T16:30:07.728Z,32.38
2022-10-17T16:32:36.022Z,30.75
2022-10-17T16:35:04.135Z,31.38
2022-10-17T16:37:32.547Z,30.30
2022-10-17T16:40:00.853Z,38.05
2022-10-17T16:42:29.163Z,36.15
2022-10-17T16:44:57.638Z,34.88
2022-10-17T16:47:27.080Z,34.03
2022-10-17T16:49:55.581Z,34.40
2022-10-17T16:52:23.511Z,32.03
2022-10-17T16:54:51.571Z,30.52
2022-10-17T16:57:19.535Z,36.85
2022-10-17T16:59:47.855Z,33.75
2022-10-17T17:02:18.900Z,32.97
2022-10-17T17:04:50.761Z,29.80
2022-10-17T17:07:20.008Z,35.30
2022-10-17T17:09:48.962Z,33.33
2022-10-17T17:12:17.229Z,30.90
2022-10-17T17:14:45.231Z,29.88
2022-10-17T17:17:19.684Z,30.30
2022-10-17T17:19:59.911Z,29.77
2022-10-17T17:22:27.919Z,29.30
2022-10-17T17:24:55.844Z,30.40
2022-10-17T17:27:25.204Z,30.65
2022-10-17T17:29:53.253Z,30.23
2022-10-17T17:32:21.706Z,37.13
2022-10-17T17:34:49.675Z,28.83
2022-10-17T17:37:20.816Z,32.63
2022-10-17T17:39:48.983Z,31.17
2022-10-17T17:42:16.953Z,29.95
2022-10-17T17:44:45.062Z,34.15
2022-10-17T17:47:12.955Z,35.70
2022-10-17T17:49:40.947Z,32.17
2022-10-17T17:52:09.001Z,28.60
2022-10-17T17:54:40.900Z,29.90
2022-10-17T17:57:09.256Z,31.25
2022-10-17T17:59:38.649Z,31.48
2022-10-17T18:02:07.003Z,36.60
2022-10-17T18:04:35.169Z,31.95
2022-10-17T18:07:03.155Z,31.98
2022-10-17T18:09:31.141Z,29.02
2022-10-17T18:12:00.584Z,32.08
2022-10-17T18:14:28.697Z,31.70
2022-10-17T18:16:56.658Z,30.33
2022-10-17T18:19:24.801Z,25.95
2022-10-17T18:21:52.826Z,31.25
2022-10-17T18:24:20.984Z,27.73
2022-10-17T18:26:49.967Z,29.38
2022-10-17T18:29:19.795Z,26.88
2022-10-17T18:31:48.238Z,26.65
2022-10-17T18:34:16.693Z,27.13
2022-10-17T18:36:44.931Z,30.02
2022-10-17T18:39:12.948Z,30.58
2022-10-17T18:41:40.940Z,31.45
2022-10-17T18:44:08.881Z,32.67
2022-10-17T18:46:41.017Z,33.08
2022-10-17T18:49:09.709Z,32.60
2022-10-17T18:51:37.927Z,31.90
2022-10-17T18:54:06.031Z,34.22
2022-10-17T18:56:34.111Z,33.20
2022-10-17T18:59:02.334Z,31.20
2022-10-17T19:01:30.757Z,29.38
2022-10-17T19:04:00.528Z,39.85
2022-10-17T19:06:31.860Z,33.15
2022-10-17T19:09:00.830Z,34.22
2022-10-17T19:11:30.200Z,33.63
2022-10-17T19:13:59.892Z,36.25
2022-10-17T19:16:29.700Z,42.17
2022-10-17T19:19:01.638Z,32.75
2022-10-17T19:21:29.792Z,34.38
2022-10-17T19:23:59.344Z,31.67
2022-10-17T19:26:29.081Z,32.40
2022-10-17T19:28:57.474Z,34.35
2022-10-17T19:31:27.977Z,34.55
2022-10-17T19:33:57.362Z,32.40
2022-10-17T19:36:32.438Z,36.97
2022-10-17T19:39:03.464Z,35.05
2022-10-17T19:41:31.553Z,32.85
2022-10-17T19:44:00.628Z,38.75
2022-10-17T19:46:29.739Z,36.13
2022-10-17T19:48:57.887Z,34.38
2022-10-17T19:51:28.559Z,29.98
2022-10-17T19:54:00.248Z,32.22
2022-10-17T19:56:30.292Z,43.08
2022-10-17T19:58:59.184Z,31.55
2022-10-17T20:01:30.792Z,41.22
2022-10-17T20:03:59.051Z,37.45
2022-10-17T20:06:29.004Z,32.55
2022-10-17T20:08:57.396Z,31.75
2022-10-17T20:11:28.717Z,33.90
2022-10-17T20:13:57.463Z,34.50
2022-10-17T20:16:27.398Z,32.17
2022-10-17T20:18:57.028Z,40.30
2022-10-17T20:21:31.573Z,36.85
2022-10-17T20:24:00.519Z,34.53
2022-10-17T20:26:38.665Z,34.80
2022-10-17T20:29:11.595Z,35.08
2022-10-17T20:31:41.286Z,41.33
2022-10-17T20:34:12.560Z,37.75
2022-10-17T20:36:42.594Z,38.72
2022-10-17T20:39:12.660Z,39.60
2022-10-17T20:41:41.245Z,35.83
2022-10-17T20:44:09.266Z,40.88
2022-10-17T20:46:41.598Z,37.50
2022-10-17T20:49:16.232Z,34.50
2022-10-17T20:51:45.696Z,34.78
2022-10-17T20:54:13.813Z,34.17
2022-10-17T20:56:42.022Z,34.72
2022-10-17T20:59:13.744Z,32.03
2022-10-17T21:01:41.825Z,36.00
2022-10-17T21:04:40.455Z,33.97
2022-10-17T21:07:00.168Z,45.33
2022-10-17T21:09:28.227Z,41.10
2022-10-17T21:11:56.895Z,45.60
2022-10-17T21:14:26.067Z,36.33
2022-10-17T21:16:54.080Z,31.48
2022-10-17T21:19:22.803Z,38.45
2022-10-17T21:21:51.320Z,36.42
2022-10-17T21:24:20.971Z,37.75
2022-10-17T21:26:55.205Z,35.25
2022-10-17T21:29:24.405Z,40.80
2022-10-17T21:31:53.928Z,39.92
2022-10-17T21:34:24.521Z,33.70
2022-10-17T21:36:53.699Z,33.60
2022-10-17T21:39:24.789Z,42.63
2022-10-17T21:41:53.592Z,38.17
2022-10-17T21:44:25.625Z,33.50
2022-10-17T21:46:55.475Z,38.22
2022-10-17T21:49:25.230Z,39.97
2022-10-17T21:51:54.561Z,33.30
2022-10-17T21:54:24.483Z,36.85
2022-10-17T21:56:52.998Z,39.65
2022-10-17T21:59:20.982Z,37.80
2022-10-17T22:01:49.066Z,36.92
2022-10-17T22:04:19.157Z,31.90
2022-10-17T22:06:51.076Z,30.83
2022-10-17T22:09:21.179Z,35.08
2022-10-17T22:11:52.137Z,36.08
2022-10-17T22:14:21.915Z,38.33
2022-10-17T22:16:50.576Z,38.70
2022-10-17T22:19:22.179Z,33.50
2022-10-17T22:21:50.276Z,39.35
2022-10-17T22:26:54.274Z,39.90
2022-10-17T22:29:22.399Z,33.17
2022-10-17T22:31:50.633Z,39.15
2022-10-17T22:34:19.679Z,31.85
2022-10-17T22:36:49.074Z,35.05
2022-10-17T22:39:17.476Z,34.75
2022-10-17T22:41:45.731Z,33.40
2022-10-17T22:44:15.027Z,36.83
2022-10-17T22:46:42.985Z,34.85
2022-10-17T22:49:11.104Z,31.55
2022-10-17T22:51:39.053Z,33.22
2022-10-17T22:54:07.490Z,42.42
2022-10-17T22:56:35.769Z,35.72
2022-10-17T22:59:03.680Z,31.80
2022-10-17T23:01:33.187Z,32.72
2022-10-17T23:04:01.361Z,34.25
2022-10-17T23:06:29.392Z,34.03
2022-10-17T23:08:57.307Z,33.97
2022-10-17T23:11:25.271Z,31.48
2022-10-17T23:13:53.394Z,35.13
2022-10-17T23:16:21.371Z,34.30
2022-10-17T23:18:51.023Z,28.48
2022-10-17T23:21:19.073Z,33.88
2022-10-17T23:23:47.141Z,33.53
2022-10-17T23:26:15.756Z,31.88
2022-10-17T23:28:44.257Z,32.17
2022-10-17T23:31:15.484Z,28.83
2022-10-17T23:33:45.322Z,32.63
2022-10-17T23:36:16.083Z,31.10
2022-10-17T23:38:46.184Z,31.95
2022-10-17T23:41:14.887Z,32.17
2022-10-17T23:43:43.079Z,36.67
2022-10-17T23:46:11.452Z,35.35
2022-10-17T23:48:40.114Z,30.02
2022-10-17T23:51:08.774Z,31.15
2022-10-17T23:53:38.891Z,29.30
2022-10-17T23:56:08.133Z,31.05
2022-10-17T23:58:36.333Z,28.48
